Terminal Aerodrome Forecast
Issued by NWS Grand Forks, ND

Home | Current Version | Previous Version | Graphics & Text | Print | Product List | Glossary On
Versions: 1 2 3 4 5 6 7 8 9 10 11 12 13 14 15 16 17 18 19 20 21 22
370
FTUS43 KFGF 221401 AAA
TAFGFK
TAF AMD
KGFK 221401Z 2214/2312 01014KT P6SM BKN025
      TEMPO 2215/2217 BKN040
     FM221700 02015KT P6SM BKN060
     FM222100 02012KT P6SM VCTS OVC015CB
     FM222300 36012KT P6SM OVC010
     FM230000 36012KT P6SM OVC008=

USA.gov is the U.S. government's official web portal to all federal, state and local government web resources and services.